This is the latest recevied weather packets stored in our database for station/object N8ASV. If no packets are shown the sender has not sent any weather packets the latest 10 day(s).
| Time | Temp. | Humidity | Pressure | Rain* | Wind** | Luminosity | Snow |
|---|---|---|---|---|---|---|---|
| 1778026216 | 15.56° C | 91% | 1004.8 hPa | 1.52 mm | - | - | - |
| 1778025016 | 15.56° C | 91% | 1004.7 hPa | 2.03 mm | - | - | - |
| 1778014817 | 16.11° C | 89% | 1006 hPa | 1.02 mm | - | - | - |
| 1778012417 | 16.11° C | 88% | 1006.2 hPa | 1.78 mm | - | - | - |
| 1778011817 | 16.11° C | 88% | 1006 hPa | 2.29 mm | - | - | - |
| 1778010017 | 16.11° C | 86% | 1006.6 hPa | 2.03 mm | - | - | - |
| 1778004017 | 18.89° C | 69% | 1006.9 hPa | 0 mm | - | - | - |
| 1778002216 | 19.44° C | 70% | 1006.8 hPa | 0 mm | - | - | - |
| 1778001617 | 18.89° C | 70% | 1007 hPa | 0 mm | - | - | - |
| 1778001016 | 18.89° C | 70% | 1007.1 hPa | 0 mm | - | - | - |
| 1778000416 | 18.89° C | 71% | 1007.2 hPa | 0 mm | - | - | - |
| 1777999217 | 18.89° C | 70% | 1007.2 hPa | 0 mm | - | - | - |
| 1777998616 | 18.89° C | 72% | 1007.1 hPa | 0 mm | - | - | - |
| 1777998016 | 18.89° C | 73% | 1007.2 hPa | 0 mm | - | - | - |
| 1777997416 | 18.33° C | 74% | 1007.2 hPa | 0 mm | - | - | - |
| 1777996216 | 18.33° C | 73% | 1007.3 hPa | 0 mm | - | - | - |
| 1777994416 | 18.89° C | 72% | 1007 hPa | 0 mm | - | - | - |
| 1777992616 | 18.33° C | 76% | 1006.9 hPa | 0 mm | - | - | - |
| 1777984257 | 14.44° C | 90% | 1006.4 hPa | 0.25 mm | - | - | - |
| 1777978817 | 13.89° C | 90% | 1005.9 hPa | 0.25 mm | - | - | - |
| 1777975817 | 14.44° C | 87% | 1007 hPa | 2.03 mm | - | - | - |
| 1777971016 | 15.56° C | 77% | 1005.9 hPa | 0 mm | - | - | - |
| 1777970416 | 15° C | 80% | 1005.9 hPa | 0 mm | - | - | - |
| 1777969816 | 15° C | 79% | 1005.5 hPa | 0 mm | - | - | - |
| 1777967416 | 15.56° C | 77% | 1004.9 hPa | 0 mm | - | - | - |
* Rain latest hour (hover to see other rain measurements)
** Current wind speed in m/s (hover to see current wind gust speed)